sensor_id;sensor_type;location;lat;lon;timestamp;P1;durP1;ratioP1;P2;durP2;ratioP2
80700;SDS011;71609;42.630;23.380;2024-03-17T00:00:55;5.72;;;2.80;;
80700;SDS011;71609;42.630;23.380;2024-03-17T00:03:25;6.35;;;2.80;;
80700;SDS011;71609;42.630;23.380;2024-03-17T00:05:55;5.60;;;2.90;;
80700;SDS011;71609;42.630;23.380;2024-03-17T00:08:24;6.07;;;2.70;;
80700;SDS011;71609;42.630;23.380;2024-03-17T00:10:53;5.50;;;2.92;;
80700;SDS011;71609;42.630;23.380;2024-03-17T00:13:22;6.00;;;2.88;;
80700;SDS011;71609;42.630;23.380;2024-03-17T00:15:48;6.20;;;2.88;;
80700;SDS011;71609;42.630;23.380;2024-03-17T00:18:14;5.50;;;2.88;;
80700;SDS011;71609;42.630;23.380;2024-03-17T00:20:40;7.28;;;2.80;;
80700;SDS011;71609;42.630;23.380;2024-03-17T00:23:06;6.38;;;3.10;;
80700;SDS011;71609;42.630;23.380;2024-03-17T00:25:34;5.63;;;2.88;;
80700;SDS011;71609;42.630;23.380;2024-03-17T00:28:00;7.45;;;3.55;;
80700;SDS011;71609;42.630;23.380;2024-03-17T00:30:26;5.80;;;3.05;;
80700;SDS011;71609;42.630;23.380;2024-03-17T00:32:52;6.32;;;2.97;;
80700;SDS011;71609;42.630;23.380;2024-03-17T00:35:18;6.05;;;3.25;;
80700;SDS011;71609;42.630;23.380;2024-03-17T00:37:48;6.05;;;3.10;;
80700;SDS011;71609;42.630;23.380;2024-03-17T00:40:14;5.38;;;2.90;;
80700;SDS011;71609;42.630;23.380;2024-03-17T00:42:41;6.82;;;3.15;;
80700;SDS011;71609;42.630;23.380;2024-03-17T00:45:07;6.93;;;3.42;;
80700;SDS011;71609;42.630;23.380;2024-03-17T00:47:35;6.63;;;2.90;;
80700;SDS011;71609;42.630;23.380;2024-03-17T00:50:01;6.13;;;3.22;;
80700;SDS011;71609;42.630;23.380;2024-03-17T00:52:28;5.70;;;2.90;;
80700;SDS011;71609;42.630;23.380;2024-03-17T00:54:54;6.20;;;3.28;;
80700;SDS011;71609;42.630;23.380;2024-03-17T00:57:20;5.93;;;2.97;;
80700;SDS011;71609;42.630;23.380;2024-03-17T00:59:45;5.90;;;3.00;;
80700;SDS011;71609;42.630;23.380;2024-03-17T01:02:11;6.72;;;3.25;;
80700;SDS011;71609;42.630;23.380;2024-03-17T01:04:41;6.97;;;3.40;;
80700;SDS011;71609;42.630;23.380;2024-03-17T01:07:08;6.28;;;3.22;;
80700;SDS011;71609;42.630;23.380;2024-03-17T01:09:37;7.30;;;3.17;;
80700;SDS011;71609;42.630;23.380;2024-03-17T01:12:03;6.57;;;2.97;;
80700;SDS011;71609;42.630;23.380;2024-03-17T01:14:29;7.20;;;3.75;;
80700;SDS011;71609;42.630;23.380;2024-03-17T01:16:56;6.18;;;3.10;;
80700;SDS011;71609;42.630;23.380;2024-03-17T01:19:22;5.40;;;3.03;;
80700;SDS011;71609;42.630;23.380;2024-03-17T01:21:49;8.23;;;3.70;;
80700;SDS011;71609;42.630;23.380;2024-03-17T01:24:16;6.63;;;3.47;;
80700;SDS011;71609;42.630;23.380;2024-03-17T01:26:42;6.32;;;3.10;;
80700;SDS011;71609;42.630;23.380;2024-03-17T01:29:08;6.13;;;3.50;;
80700;SDS011;71609;42.630;23.380;2024-03-17T01:31:34;6.22;;;3.28;;
80700;SDS011;71609;42.630;23.380;2024-03-17T01:34:00;6.10;;;3.30;;
80700;SDS011;71609;42.630;23.380;2024-03-17T01:36:26;5.97;;;3.10;;
80700;SDS011;71609;42.630;23.380;2024-03-17T01:38:52;6.95;;;3.28;;
80700;SDS011;71609;42.630;23.380;2024-03-17T01:41:17;6.25;;;3.40;;
80700;SDS011;71609;42.630;23.380;2024-03-17T01:43:43;6.18;;;3.20;;
80700;SDS011;71609;42.630;23.380;2024-03-17T01:46:13;5.97;;;3.10;;
80700;SDS011;71609;42.630;23.380;2024-03-17T01:48:40;6.13;;;3.58;;
80700;SDS011;71609;42.630;23.380;2024-03-17T01:51:07;5.85;;;3.40;;
80700;SDS011;71609;42.630;23.380;2024-03-17T01:53:35;7.50;;;3.30;;
80700;SDS011;71609;42.630;23.380;2024-03-17T01:56:02;5.95;;;2.97;;
80700;SDS011;71609;42.630;23.380;2024-03-17T01:58:32;7.80;;;3.72;;
80700;SDS011;71609;42.630;23.380;2024-03-17T02:00:58;6.35;;;3.38;;
80700;SDS011;71609;42.630;23.380;2024-03-17T02:03:24;6.20;;;3.55;;
80700;SDS011;71609;42.630;23.380;2024-03-17T02:05:50;6.32;;;3.30;;
80700;SDS011;71609;42.630;23.380;2024-03-17T02:08:16;6.90;;;3.45;;
80700;SDS011;71609;42.630;23.380;2024-03-17T02:10:43;5.68;;;3.13;;
80700;SDS011;71609;42.630;23.380;2024-03-17T02:13:08;7.75;;;3.67;;
80700;SDS011;71609;42.630;23.380;2024-03-17T02:15:34;6.50;;;3.22;;
80700;SDS011;71609;42.630;23.380;2024-03-17T02:18:00;7.03;;;3.50;;
80700;SDS011;71609;42.630;23.380;2024-03-17T02:20:26;6.60;;;3.75;;
80700;SDS011;71609;42.630;23.380;2024-03-17T02:23:10;6.50;;;3.28;;
80700;SDS011;71609;42.630;23.380;2024-03-17T02:25:36;7.55;;;3.47;;
80700;SDS011;71609;42.630;23.380;2024-03-17T02:28:02;7.20;;;3.50;;
80700;SDS011;71609;42.630;23.380;2024-03-17T02:30:29;6.22;;;3.40;;
80700;SDS011;71609;42.630;23.380;2024-03-17T02:32:55;6.03;;;3.22;;
80700;SDS011;71609;42.630;23.380;2024-03-17T02:35:22;7.90;;;3.63;;
80700;SDS011;71609;42.630;23.380;2024-03-17T02:37:48;7.82;;;3.67;;
80700;SDS011;71609;42.630;23.380;2024-03-17T02:40:14;5.68;;;2.95;;
80700;SDS011;71609;42.630;23.380;2024-03-17T02:42:41;7.00;;;3.70;;
80700;SDS011;71609;42.630;23.380;2024-03-17T02:45:08;6.43;;;3.67;;
80700;SDS011;71609;42.630;23.380;2024-03-17T02:47:34;6.90;;;3.55;;
80700;SDS011;71609;42.630;23.380;2024-03-17T02:50:00;6.35;;;3.35;;
80700;SDS011;71609;42.630;23.380;2024-03-17T02:52:26;7.38;;;3.70;;
80700;SDS011;71609;42.630;23.380;2024-03-17T02:54:52;9.15;;;3.97;;
80700;SDS011;71609;42.630;23.380;2024-03-17T02:57:21;6.75;;;3.53;;
80700;SDS011;71609;42.630;23.380;2024-03-17T02:59:50;5.77;;;3.37;;
80700;SDS011;71609;42.630;23.380;2024-03-17T03:02:16;7.30;;;3.53;;
80700;SDS011;71609;42.630;23.380;2024-03-17T03:04:42;7.20;;;3.60;;
80700;SDS011;71609;42.630;23.380;2024-03-17T03:07:08;6.70;;;3.53;;
80700;SDS011;71609;42.630;23.380;2024-03-17T03:09:34;5.97;;;3.45;;
80700;SDS011;71609;42.630;23.380;2024-03-17T03:12:00;7.43;;;3.88;;
80700;SDS011;71609;42.630;23.380;2024-03-17T03:14:29;9.27;;;4.05;;
80700;SDS011;71609;42.630;23.380;2024-03-17T03:16:55;7.00;;;3.55;;
80700;SDS011;71609;42.630;23.380;2024-03-17T03:19:21;7.60;;;3.72;;
80700;SDS011;71609;42.630;23.380;2024-03-17T03:21:47;6.80;;;3.50;;
80700;SDS011;71609;42.630;23.380;2024-03-17T03:24:13;7.43;;;3.50;;
80700;SDS011;71609;42.630;23.380;2024-03-17T03:26:39;6.78;;;3.42;;
80700;SDS011;71609;42.630;23.380;2024-03-17T03:29:05;6.18;;;3.25;;
80700;SDS011;71609;42.630;23.380;2024-03-17T03:31:31;6.80;;;3.80;;
80700;SDS011;71609;42.630;23.380;2024-03-17T03:33:57;5.95;;;3.38;;
80700;SDS011;71609;42.630;23.380;2024-03-17T03:36:26;7.20;;;3.73;;
80700;SDS011;71609;42.630;23.380;2024-03-17T03:38:52;6.57;;;3.28;;
80700;SDS011;71609;42.630;23.380;2024-03-17T03:41:19;6.53;;;3.53;;
80700;SDS011;71609;42.630;23.380;2024-03-17T03:43:45;7.18;;;3.55;;
80700;SDS011;71609;42.630;23.380;2024-03-17T03:46:13;6.07;;;3.37;;
80700;SDS011;71609;42.630;23.380;2024-03-17T03:48:40;5.80;;;3.35;;
80700;SDS011;71609;42.630;23.380;2024-03-17T03:51:06;8.35;;;3.45;;
80700;SDS011;71609;42.630;23.380;2024-03-17T03:53:33;6.03;;;3.30;;
80700;SDS011;71609;42.630;23.380;2024-03-17T03:55:59;5.85;;;3.38;;
80700;SDS011;71609;42.630;23.380;2024-03-17T03:58:31;7.68;;;3.65;;
80700;SDS011;71609;42.630;23.380;2024-03-17T04:01:00;6.32;;;3.40;;
80700;SDS011;71609;42.630;23.380;2024-03-17T04:03:30;6.25;;;3.33;;
80700;SDS011;71609;42.630;23.380;2024-03-17T04:06:03;6.20;;;3.45;;
80700;SDS011;71609;42.630;23.380;2024-03-17T04:08:30;6.53;;;3.70;;
80700;SDS011;71609;42.630;23.380;2024-03-17T04:10:57;7.10;;;3.65;;
80700;SDS011;71609;42.630;23.380;2024-03-17T04:13:23;5.95;;;3.20;;
80700;SDS011;71609;42.630;23.380;2024-03-17T04:15:48;5.80;;;3.30;;
80700;SDS011;71609;42.630;23.380;2024-03-17T04:18:14;6.10;;;3.33;;
80700;SDS011;71609;42.630;23.380;2024-03-17T04:20:43;6.40;;;3.47;;
80700;SDS011;71609;42.630;23.380;2024-03-17T04:23:09;6.78;;;3.45;;
80700;SDS011;71609;42.630;23.380;2024-03-17T04:25:35;7.03;;;3.53;;
80700;SDS011;71609;42.630;23.380;2024-03-17T04:28:01;5.63;;;3.42;;
80700;SDS011;71609;42.630;23.380;2024-03-17T04:30:26;7.07;;;3.88;;
80700;SDS011;71609;42.630;23.380;2024-03-17T04:32:52;8.32;;;3.85;;
80700;SDS011;71609;42.630;23.380;2024-03-17T04:35:18;6.43;;;3.67;;
80700;SDS011;71609;42.630;23.380;2024-03-17T04:37:44;6.60;;;3.25;;
80700;SDS011;71609;42.630;23.380;2024-03-17T04:40:10;6.50;;;3.42;;
80700;SDS011;71609;42.630;23.380;2024-03-17T04:42:36;7.15;;;3.80;;
80700;SDS011;71609;42.630;23.380;2024-03-17T04:45:04;7.05;;;3.47;;
80700;SDS011;71609;42.630;23.380;2024-03-17T04:47:31;7.47;;;3.95;;
80700;SDS011;71609;42.630;23.380;2024-03-17T04:49:56;5.95;;;3.63;;
80700;SDS011;71609;42.630;23.380;2024-03-17T04:52:22;7.63;;;3.60;;
80700;SDS011;71609;42.630;23.380;2024-03-17T04:54:48;6.88;;;3.50;;
80700;SDS011;71609;42.630;23.380;2024-03-17T04:57:14;7.63;;;4.28;;
80700;SDS011;71609;42.630;23.380;2024-03-17T04:59:40;8.73;;;3.65;;
80700;SDS011;71609;42.630;23.380;2024-03-17T05:02:05;6.03;;;3.30;;
80700;SDS011;71609;42.630;23.380;2024-03-17T05:04:31;8.05;;;3.80;;
80700;SDS011;71609;42.630;23.380;2024-03-17T05:06:57;6.68;;;3.60;;
80700;SDS011;71609;42.630;23.380;2024-03-17T05:09:22;6.68;;;3.33;;
80700;SDS011;71609;42.630;23.380;2024-03-17T05:11:49;8.93;;;3.65;;
80700;SDS011;71609;42.630;23.380;2024-03-17T05:14:17;7.97;;;4.17;;
80700;SDS011;71609;42.630;23.380;2024-03-17T05:16:44;6.53;;;3.30;;
80700;SDS011;71609;42.630;23.380;2024-03-17T05:19:10;6.97;;;3.42;;
80700;SDS011;71609;42.630;23.380;2024-03-17T05:21:36;6.38;;;3.42;;
80700;SDS011;71609;42.630;23.380;2024-03-17T05:24:02;7.32;;;3.72;;
80700;SDS011;71609;42.630;23.380;2024-03-17T05:26:28;7.72;;;3.38;;
80700;SDS011;71609;42.630;23.380;2024-03-17T05:28:55;7.63;;;3.70;;
80700;SDS011;71609;42.630;23.380;2024-03-17T05:31:21;5.38;;;3.10;;
80700;SDS011;71609;42.630;23.380;2024-03-17T05:33:47;6.70;;;3.80;;
80700;SDS011;71609;42.630;23.380;2024-03-17T05:36:13;9.13;;;4.20;;
80700;SDS011;71609;42.630;23.380;2024-03-17T05:38:39;10.65;;;4.47;;
80700;SDS011;71609;42.630;23.380;2024-03-17T05:41:06;6.25;;;3.53;;
80700;SDS011;71609;42.630;23.380;2024-03-17T05:43:33;6.93;;;3.38;;
80700;SDS011;71609;42.630;23.380;2024-03-17T05:46:04;6.88;;;3.63;;
80700;SDS011;71609;42.630;23.380;2024-03-17T05:48:34;7.28;;;3.70;;
80700;SDS011;71609;42.630;23.380;2024-03-17T05:51:07;7.47;;;3.63;;
80700;SDS011;71609;42.630;23.380;2024-03-17T05:53:37;6.97;;;3.80;;
80700;SDS011;71609;42.630;23.380;2024-03-17T05:56:05;7.43;;;3.35;;
80700;SDS011;71609;42.630;23.380;2024-03-17T05:58:36;6.70;;;3.55;;
80700;SDS011;71609;42.630;23.380;2024-03-17T06:01:02;7.03;;;3.58;;
80700;SDS011;71609;42.630;23.380;2024-03-17T06:03:28;7.13;;;3.70;;
80700;SDS011;71609;42.630;23.380;2024-03-17T06:05:54;6.25;;;3.25;;
80700;SDS011;71609;42.630;23.380;2024-03-17T06:08:20;7.05;;;3.50;;
80700;SDS011;71609;42.630;23.380;2024-03-17T06:10:47;5.95;;;3.33;;
80700;SDS011;71609;42.630;23.380;2024-03-17T06:13:14;6.60;;;3.50;;
80700;SDS011;71609;42.630;23.380;2024-03-17T06:18:11;5.65;;;3.10;;
80700;SDS011;71609;42.630;23.380;2024-03-17T06:23:07;7.18;;;3.30;;
80700;SDS011;71609;42.630;23.380;2024-03-17T06:25:36;7.07;;;3.55;;
80700;SDS011;71609;42.630;23.380;2024-03-17T06:28:07;6.20;;;3.20;;
80700;SDS011;71609;42.630;23.380;2024-03-17T06:30:34;6.85;;;3.38;;
80700;SDS011;71609;42.630;23.380;2024-03-17T06:33:01;6.30;;;3.38;;
80700;SDS011;71609;42.630;23.380;2024-03-17T06:35:27;7.40;;;3.70;;
80700;SDS011;71609;42.630;23.380;2024-03-17T06:37:58;7.38;;;3.58;;
80700;SDS011;71609;42.630;23.380;2024-03-17T06:40:25;7.00;;;3.40;;
80700;SDS011;71609;42.630;23.380;2024-03-17T06:42:51;6.25;;;3.50;;
80700;SDS011;71609;42.630;23.380;2024-03-17T06:45:18;6.80;;;3.72;;
80700;SDS011;71609;42.630;23.380;2024-03-17T06:47:45;11.35;;;3.90;;
80700;SDS011;71609;42.630;23.380;2024-03-17T06:50:11;5.50;;;3.30;;
80700;SDS011;71609;42.630;23.380;2024-03-17T06:52:37;6.60;;;3.30;;
80700;SDS011;71609;42.630;23.380;2024-03-17T06:55:03;7.53;;;3.75;;
80700;SDS011;71609;42.630;23.380;2024-03-17T06:57:30;7.28;;;3.35;;
80700;SDS011;71609;42.630;23.380;2024-03-17T06:59:55;7.82;;;3.58;;
80700;SDS011;71609;42.630;23.380;2024-03-17T07:02:21;7.43;;;3.72;;
80700;SDS011;71609;42.630;23.380;2024-03-17T07:04:47;6.93;;;3.70;;
80700;SDS011;71609;42.630;23.380;2024-03-17T07:07:13;6.20;;;3.15;;
80700;SDS011;71609;42.630;23.380;2024-03-17T07:09:39;6.20;;;3.50;;
80700;SDS011;71609;42.630;23.380;2024-03-17T07:12:09;6.80;;;3.85;;
80700;SDS011;71609;42.630;23.380;2024-03-17T07:14:36;7.00;;;3.45;;
80700;SDS011;71609;42.630;23.380;2024-03-17T07:17:02;6.10;;;3.30;;
80700;SDS011;71609;42.630;23.380;2024-03-17T07:19:29;6.13;;;3.40;;
80700;SDS011;71609;42.630;23.380;2024-03-17T07:21:56;6.63;;;3.40;;
80700;SDS011;71609;42.630;23.380;2024-03-17T07:24:22;6.47;;;3.28;;
80700;SDS011;71609;42.630;23.380;2024-03-17T07:26:48;6.63;;;3.50;;
80700;SDS011;71609;42.630;23.380;2024-03-17T07:29:15;6.30;;;3.05;;
80700;SDS011;71609;42.630;23.380;2024-03-17T07:31:41;6.68;;;3.20;;
80700;SDS011;71609;42.630;23.380;2024-03-17T07:34:07;6.38;;;3.20;;
80700;SDS011;71609;42.630;23.380;2024-03-17T07:36:32;6.32;;;3.22;;
80700;SDS011;71609;42.630;23.380;2024-03-17T07:38:58;5.45;;;3.10;;
80700;SDS011;71609;42.630;23.380;2024-03-17T07:41:24;7.47;;;3.20;;
80700;SDS011;71609;42.630;23.380;2024-03-17T07:43:50;6.22;;;3.38;;
80700;SDS011;71609;42.630;23.380;2024-03-17T07:46:15;6.05;;;3.50;;
80700;SDS011;71609;42.630;23.380;2024-03-17T07:48:42;6.22;;;3.50;;
80700;SDS011;71609;42.630;23.380;2024-03-17T07:51:12;5.38;;;3.10;;
80700;SDS011;71609;42.630;23.380;2024-03-17T07:53:40;5.72;;;2.95;;
80700;SDS011;71609;42.630;23.380;2024-03-17T07:56:07;6.82;;;2.80;;
80700;SDS011;71609;42.630;23.380;2024-03-17T07:58:34;6.00;;;2.92;;
80700;SDS011;71609;42.630;23.380;2024-03-17T08:01:04;8.32;;;3.40;;
80700;SDS011;71609;42.630;23.380;2024-03-17T08:03:32;6.03;;;3.60;;
80700;SDS011;71609;42.630;23.380;2024-03-17T08:06:01;6.05;;;3.22;;
80700;SDS011;71609;42.630;23.380;2024-03-17T08:08:28;6.97;;;3.35;;
80700;SDS011;71609;42.630;23.380;2024-03-17T08:10:54;6.13;;;3.30;;
80700;SDS011;71609;42.630;23.380;2024-03-17T08:13:20;5.63;;;3.15;;
80700;SDS011;71609;42.630;23.380;2024-03-17T08:15:54;6.50;;;3.35;;
80700;SDS011;71609;42.630;23.380;2024-03-17T08:18:23;5.90;;;3.05;;
80700;SDS011;71609;42.630;23.380;2024-03-17T08:20:50;6.15;;;3.20;;
80700;SDS011;71609;42.630;23.380;2024-03-17T08:23:16;6.05;;;3.20;;
80700;SDS011;71609;42.630;23.380;2024-03-17T08:25:41;7.00;;;3.20;;
80700;SDS011;71609;42.630;23.380;2024-03-17T08:28:07;5.57;;;3.08;;
80700;SDS011;71609;42.630;23.380;2024-03-17T08:30:33;7.43;;;3.30;;
80700;SDS011;71609;42.630;23.380;2024-03-17T08:32:59;6.30;;;3.28;;
80700;SDS011;71609;42.630;23.380;2024-03-17T08:35:26;6.20;;;3.10;;
80700;SDS011;71609;42.630;23.380;2024-03-17T08:37:52;6.47;;;3.13;;
80700;SDS011;71609;42.630;23.380;2024-03-17T08:40:21;6.00;;;3.25;;
80700;SDS011;71609;42.630;23.380;2024-03-17T08:42:48;6.53;;;3.50;;
80700;SDS011;71609;42.630;23.380;2024-03-17T08:45:14;7.20;;;3.40;;
80700;SDS011;71609;42.630;23.380;2024-03-17T08:47:41;5.53;;;2.92;;
80700;SDS011;71609;42.630;23.380;2024-03-17T08:50:07;7.05;;;3.40;;
80700;SDS011;71609;42.630;23.380;2024-03-17T08:52:33;5.30;;;2.88;;
80700;SDS011;71609;42.630;23.380;2024-03-17T08:54:59;6.75;;;3.13;;
80700;SDS011;71609;42.630;23.380;2024-03-17T08:57:28;6.55;;;3.03;;
80700;SDS011;71609;42.630;23.380;2024-03-17T08:59:55;6.43;;;3.60;;
80700;SDS011;71609;42.630;23.380;2024-03-17T09:02:20;6.45;;;2.90;;
80700;SDS011;71609;42.630;23.380;2024-03-17T09:04:46;6.13;;;3.25;;
80700;SDS011;71609;42.630;23.380;2024-03-17T09:07:13;7.55;;;3.05;;
80700;SDS011;71609;42.630;23.380;2024-03-17T09:09:42;8.02;;;3.10;;
80700;SDS011;71609;42.630;23.380;2024-03-17T09:12:08;6.05;;;3.08;;
80700;SDS011;71609;42.630;23.380;2024-03-17T09:14:34;5.95;;;3.05;;
80700;SDS011;71609;42.630;23.380;2024-03-17T09:17:00;5.35;;;2.83;;
80700;SDS011;71609;42.630;23.380;2024-03-17T09:19:26;5.43;;;2.83;;
80700;SDS011;71609;42.630;23.380;2024-03-17T09:21:54;6.10;;;2.90;;
80700;SDS011;71609;42.630;23.380;2024-03-17T09:24:20;4.65;;;2.45;;
80700;SDS011;71609;42.630;23.380;2024-03-17T09:26:46;4.97;;;2.65;;
80700;SDS011;71609;42.630;23.380;2024-03-17T09:29:12;6.30;;;2.75;;
80700;SDS011;71609;42.630;23.380;2024-03-17T09:31:40;5.25;;;2.67;;
80700;SDS011;71609;42.630;23.380;2024-03-17T09:34:06;5.75;;;2.83;;
80700;SDS011;71609;42.630;23.380;2024-03-17T09:36:33;6.13;;;3.00;;
80700;SDS011;71609;42.630;23.380;2024-03-17T09:38:58;6.03;;;2.83;;
80700;SDS011;71609;42.630;23.380;2024-03-17T09:41:25;5.75;;;3.03;;
80700;SDS011;71609;42.630;23.380;2024-03-17T09:43:58;5.28;;;2.88;;
80700;SDS011;71609;42.630;23.380;2024-03-17T09:46:25;5.78;;;2.85;;
80700;SDS011;71609;42.630;23.380;2024-03-17T09:48:53;6.20;;;3.10;;
80700;SDS011;71609;42.630;23.380;2024-03-17T09:51:23;7.03;;;2.90;;
80700;SDS011;71609;42.630;23.380;2024-03-17T09:53:50;6.18;;;3.10;;
80700;SDS011;71609;42.630;23.380;2024-03-17T09:56:17;5.28;;;2.83;;
80700;SDS011;71609;42.630;23.380;2024-03-17T09:58:45;5.35;;;2.63;;
80700;SDS011;71609;42.630;23.380;2024-03-17T10:01:17;5.65;;;2.85;;
80700;SDS011;71609;42.630;23.380;2024-03-17T10:06:24;5.55;;;2.80;;
80700;SDS011;71609;42.630;23.380;2024-03-17T10:08:53;6.70;;;3.10;;
80700;SDS011;71609;42.630;23.380;2024-03-17T10:11:20;6.68;;;2.97;;
80700;SDS011;71609;42.630;23.380;2024-03-17T10:14:09;5.20;;;2.67;;
80700;SDS011;71609;42.630;23.380;2024-03-17T10:16:35;4.80;;;2.65;;
80700;SDS011;71609;42.630;23.380;2024-03-17T10:19:12;4.90;;;2.65;;
80700;SDS011;71609;42.630;23.380;2024-03-17T10:21:48;5.32;;;2.70;;
80700;SDS011;71609;42.630;23.380;2024-03-17T10:24:21;5.07;;;2.90;;
80700;SDS011;71609;42.630;23.380;2024-03-17T10:26:49;5.05;;;2.42;;
80700;SDS011;71609;42.630;23.380;2024-03-17T10:29:20;5.18;;;2.65;;
80700;SDS011;71609;42.630;23.380;2024-03-17T10:34:27;5.38;;;2.80;;
80700;SDS011;71609;42.630;23.380;2024-03-17T10:39:39;5.03;;;2.58;;
80700;SDS011;71609;42.630;23.380;2024-03-17T10:42:06;5.72;;;2.78;;
80700;SDS011;71609;42.630;23.380;2024-03-17T10:44:37;4.90;;;2.70;;
80700;SDS011;71609;42.630;23.380;2024-03-17T10:47:04;4.68;;;2.78;;
80700;SDS011;71609;42.630;23.380;2024-03-17T10:49:40;4.43;;;2.42;;
80700;SDS011;71609;42.630;23.380;2024-03-17T10:52:08;5.20;;;2.47;;
80700;SDS011;71609;42.630;23.380;2024-03-17T10:54:46;5.95;;;2.70;;
80700;SDS011;71609;42.630;23.380;2024-03-17T10:59:54;4.95;;;2.60;;
80700;SDS011;71609;42.630;23.380;2024-03-17T11:02:24;5.10;;;2.50;;
80700;SDS011;71609;42.630;23.380;2024-03-17T11:04:57;5.43;;;2.83;;
80700;SDS011;71609;42.630;23.380;2024-03-17T11:07:44;5.53;;;2.75;;
80700;SDS011;71609;42.630;23.380;2024-03-17T11:12:56;5.07;;;2.30;;
80700;SDS011;71609;42.630;23.380;2024-03-17T11:20:36;4.45;;;2.53;;
80700;SDS011;71609;42.630;23.380;2024-03-17T11:23:04;5.83;;;2.67;;
80700;SDS011;71609;42.630;23.380;2024-03-17T11:25:37;4.78;;;2.42;;
80700;SDS011;71609;42.630;23.380;2024-03-17T11:28:03;4.50;;;2.50;;
80700;SDS011;71609;42.630;23.380;2024-03-17T11:38:55;5.07;;;2.50;;
80700;SDS011;71609;42.630;23.380;2024-03-17T11:41:40;5.80;;;2.53;;
80700;SDS011;71609;42.630;23.380;2024-03-17T11:49:32;5.80;;;2.65;;
80700;SDS011;71609;42.630;23.380;2024-03-17T11:52:13;5.53;;;2.47;;
80700;SDS011;71609;42.630;23.380;2024-03-17T11:54:41;4.22;;;2.25;;
80700;SDS011;71609;42.630;23.380;2024-03-17T11:57:12;4.93;;;2.70;;
80700;SDS011;71609;42.630;23.380;2024-03-17T11:59:39;5.82;;;2.80;;
80700;SDS011;71609;42.630;23.380;2024-03-17T12:04:56;5.07;;;2.38;;
80700;SDS011;71609;42.630;23.380;2024-03-17T12:07:23;5.05;;;2.45;;
80700;SDS011;71609;42.630;23.380;2024-03-17T12:09:51;6.43;;;2.70;;
80700;SDS011;71609;42.630;23.380;2024-03-17T12:14:49;5.25;;;2.70;;
80700;SDS011;71609;42.630;23.380;2024-03-17T12:17:24;3.20;;;1.88;;
80700;SDS011;71609;42.630;23.380;2024-03-17T12:19:50;4.70;;;2.50;;
80700;SDS011;71609;42.630;23.380;2024-03-17T12:22:21;4.20;;;2.35;;
80700;SDS011;71609;42.630;23.380;2024-03-17T12:24:53;5.30;;;2.67;;
80700;SDS011;71609;42.630;23.380;2024-03-17T12:27:23;5.05;;;2.40;;
80700;SDS011;71609;42.630;23.380;2024-03-17T12:29:51;5.03;;;2.42;;
80700;SDS011;71609;42.630;23.380;2024-03-17T12:32:21;4.80;;;2.38;;
80700;SDS011;71609;42.630;23.380;2024-03-17T12:34:51;4.22;;;2.20;;
80700;SDS011;71609;42.630;23.380;2024-03-17T12:37:19;4.80;;;2.20;;
80700;SDS011;71609;42.630;23.380;2024-03-17T12:39:58;4.50;;;2.40;;
80700;SDS011;71609;42.630;23.380;2024-03-17T12:42:28;4.70;;;2.13;;
80700;SDS011;71609;42.630;23.380;2024-03-17T12:47:29;5.10;;;2.33;;
80700;SDS011;71609;42.630;23.380;2024-03-17T12:50:00;5.03;;;2.38;;
80700;SDS011;71609;42.630;23.380;2024-03-17T12:52:27;4.55;;;2.35;;
80700;SDS011;71609;42.630;23.380;2024-03-17T12:57:44;6.28;;;2.35;;
80700;SDS011;71609;42.630;23.380;2024-03-17T13:00:32;4.82;;;2.58;;
80700;SDS011;71609;42.630;23.380;2024-03-17T13:03:02;5.55;;;3.10;;
80700;SDS011;71609;42.630;23.380;2024-03-17T13:05:32;4.35;;;2.03;;
80700;SDS011;71609;42.630;23.380;2024-03-17T13:07:59;4.05;;;2.30;;
80700;SDS011;71609;42.630;23.380;2024-03-17T13:10:26;4.68;;;2.38;;
80700;SDS011;71609;42.630;23.380;2024-03-17T13:13:03;5.28;;;2.50;;
80700;SDS011;71609;42.630;23.380;2024-03-17T13:15:30;5.85;;;2.40;;
80700;SDS011;71609;42.630;23.380;2024-03-17T13:17:57;6.80;;;2.53;;
80700;SDS011;71609;42.630;23.380;2024-03-17T13:20:25;4.82;;;2.20;;
80700;SDS011;71609;42.630;23.380;2024-03-17T13:22:51;4.63;;;2.33;;
80700;SDS011;71609;42.630;23.380;2024-03-17T13:25:18;4.60;;;2.40;;
80700;SDS011;71609;42.630;23.380;2024-03-17T13:27:47;5.13;;;2.40;;
80700;SDS011;71609;42.630;23.380;2024-03-17T13:30:16;4.95;;;2.50;;
80700;SDS011;71609;42.630;23.380;2024-03-17T13:32:43;4.22;;;2.22;;
80700;SDS011;71609;42.630;23.380;2024-03-17T13:37:46;5.43;;;2.80;;
80700;SDS011;71609;42.630;23.380;2024-03-17T13:40:13;4.20;;;2.35;;
80700;SDS011;71609;42.630;23.380;2024-03-17T13:42:43;4.85;;;2.60;;
80700;SDS011;71609;42.630;23.380;2024-03-17T13:45:12;5.25;;;2.47;;
80700;SDS011;71609;42.630;23.380;2024-03-17T13:47:39;4.35;;;2.10;;
80700;SDS011;71609;42.630;23.380;2024-03-17T13:50:06;4.68;;;2.47;;
80700;SDS011;71609;42.630;23.380;2024-03-17T13:52:37;4.82;;;2.28;;
80700;SDS011;71609;42.630;23.380;2024-03-17T13:55:12;3.88;;;2.03;;
80700;SDS011;71609;42.630;23.380;2024-03-17T13:57:43;4.85;;;2.25;;
80700;SDS011;71609;42.630;23.380;2024-03-17T14:00:10;4.88;;;2.53;;
80700;SDS011;71609;42.630;23.380;2024-03-17T14:02:44;4.85;;;2.55;;
80700;SDS011;71609;42.630;23.380;2024-03-17T14:05:14;4.75;;;2.30;;
80700;SDS011;71609;42.630;23.380;2024-03-17T14:07:41;4.53;;;2.20;;
80700;SDS011;71609;42.630;23.380;2024-03-17T14:10:08;5.22;;;2.50;;
80700;SDS011;71609;42.630;23.380;2024-03-17T14:12:35;5.32;;;2.58;;
80700;SDS011;71609;42.630;23.380;2024-03-17T14:15:03;5.68;;;2.65;;
80700;SDS011;71609;42.630;23.380;2024-03-17T14:17:35;4.47;;;2.30;;
80700;SDS011;71609;42.630;23.380;2024-03-17T14:20:05;4.85;;;2.40;;
80700;SDS011;71609;42.630;23.380;2024-03-17T14:22:38;4.53;;;2.33;;
80700;SDS011;71609;42.630;23.380;2024-03-17T14:25:05;4.60;;;2.35;;
80700;SDS011;71609;42.630;23.380;2024-03-17T14:27:31;4.20;;;2.30;;
80700;SDS011;71609;42.630;23.380;2024-03-17T14:29:57;4.03;;;2.30;;
80700;SDS011;71609;42.630;23.380;2024-03-17T14:32:23;3.95;;;2.20;;
80700;SDS011;71609;42.630;23.380;2024-03-17T14:34:49;5.32;;;2.55;;
80700;SDS011;71609;42.630;23.380;2024-03-17T14:37:14;4.85;;;2.30;;
80700;SDS011;71609;42.630;23.380;2024-03-17T14:39:40;4.53;;;2.30;;
80700;SDS011;71609;42.630;23.380;2024-03-17T14:42:06;4.25;;;2.25;;
80700;SDS011;71609;42.630;23.380;2024-03-17T14:44:34;4.35;;;2.20;;
80700;SDS011;71609;42.630;23.380;2024-03-17T14:47:02;4.82;;;2.40;;
80700;SDS011;71609;42.630;23.380;2024-03-17T14:49:32;4.13;;;2.17;;
80700;SDS011;71609;42.630;23.380;2024-03-17T14:51:58;4.15;;;2.30;;
80700;SDS011;71609;42.630;23.380;2024-03-17T14:54:24;4.32;;;2.25;;
80700;SDS011;71609;42.630;23.380;2024-03-17T14:56:50;4.80;;;2.53;;
80700;SDS011;71609;42.630;23.380;2024-03-17T14:59:18;5.43;;;2.40;;
80700;SDS011;71609;42.630;23.380;2024-03-17T15:01:45;4.90;;;2.28;;
80700;SDS011;71609;42.630;23.380;2024-03-17T15:04:12;4.53;;;2.28;;
80700;SDS011;71609;42.630;23.380;2024-03-17T15:06:38;4.78;;;2.38;;
80700;SDS011;71609;42.630;23.380;2024-03-17T15:09:05;4.00;;;2.10;;
80700;SDS011;71609;42.630;23.380;2024-03-17T15:11:31;4.47;;;2.45;;
80700;SDS011;71609;42.630;23.380;2024-03-17T15:13:57;4.82;;;2.38;;
80700;SDS011;71609;42.630;23.380;2024-03-17T15:16:23;6.40;;;2.30;;
80700;SDS011;71609;42.630;23.380;2024-03-17T15:18:48;4.38;;;2.28;;
80700;SDS011;71609;42.630;23.380;2024-03-17T15:21:15;5.00;;;2.47;;
80700;SDS011;71609;42.630;23.380;2024-03-17T15:23:41;5.10;;;2.50;;
80700;SDS011;71609;42.630;23.380;2024-03-17T15:26:07;4.90;;;2.55;;